createdAt,value
2022-08-16T00:00:04.567Z,20.74
2022-08-16T00:01:07.393Z,20.72
2022-08-16T00:02:12.818Z,20.71
2022-08-16T00:03:15.574Z,20.71
2022-08-16T00:04:20.128Z,20.69
2022-08-16T00:05:25.260Z,20.68
2022-08-16T00:06:29.762Z,20.67
2022-08-16T00:07:32.122Z,20.66
2022-08-16T00:08:36.886Z,20.65
2022-08-16T00:09:39.497Z,20.63
2022-08-16T00:10:44.123Z,20.63
2022-08-16T00:11:47.322Z,20.61
2022-08-16T00:12:55.860Z,20.61
2022-08-16T00:13:58.170Z,20.59
2022-08-16T00:15:11.591Z,20.59
2022-08-16T00:16:57.938Z,20.57
2022-08-16T00:17:56.177Z,20.56
2022-08-16T00:19:00.046Z,20.54
2022-08-16T00:20:02.389Z,20.52
2022-08-16T00:21:06.205Z,20.50
2022-08-16T00:22:13.595Z,20.50
2022-08-16T00:23:18.282Z,20.49
2022-08-16T00:24:32.544Z,20.47
2022-08-16T00:26:35.345Z,20.46
2022-08-16T00:26:57.943Z,20.44
2022-08-16T00:28:01.100Z,20.44
2022-08-16T00:29:04.763Z,20.41
2022-08-16T00:30:19.430Z,20.40
2022-08-16T00:31:58.729Z,20.39
2022-08-16T00:33:01.679Z,20.36
2022-08-16T00:34:04.667Z,20.35
2022-08-16T00:35:13.280Z,20.34
2022-08-16T00:36:18.027Z,20.32
2022-08-16T00:37:56.310Z,20.30
2022-08-16T00:38:47.247Z,20.28
2022-08-16T00:39:57.784Z,20.26
2022-08-16T00:41:02.034Z,20.23
2022-08-16T00:42:10.110Z,20.22
2022-08-16T00:43:19.197Z,20.21
2022-08-16T00:44:22.569Z,20.18
2022-08-16T00:45:57.769Z,20.16
2022-08-16T00:47:08.719Z,20.14
2022-08-16T00:48:31.048Z,20.12
2022-08-16T00:49:39.216Z,20.11
2022-08-16T00:50:45.731Z,20.09
2022-08-16T00:51:54.950Z,20.06
2022-08-16T00:52:58.219Z,20.05
2022-08-16T00:54:02.539Z,20.03
2022-08-16T00:55:08.551Z,20.03
2022-08-16T00:56:56.032Z,20.01
2022-08-16T00:58:00.118Z,20.00
2022-08-16T00:59:00.493Z,19.99
2022-08-16T01:00:07.463Z,19.97
2022-08-16T01:01:12.192Z,19.96
2022-08-16T01:02:46.870Z,19.95
2022-08-16T01:03:41.495Z,19.95
2022-08-16T01:04:44.066Z,19.92
2022-08-16T01:06:39.563Z,19.92
2022-08-16T01:07:29.362Z,19.91
2022-08-16T01:08:54.550Z,19.91
2022-08-16T01:09:57.133Z,19.90
2022-08-16T01:11:02.605Z,19.88
2022-08-16T01:12:10.529Z,19.86
2022-08-16T01:13:21.664Z,19.84
2022-08-16T01:14:30.193Z,19.83
2022-08-16T01:15:43.099Z,19.82
2022-08-16T01:16:47.727Z,19.81
2022-08-16T01:17:56.065Z,19.80
2022-08-16T01:19:05.794Z,19.79
2022-08-16T01:20:11.672Z,19.77
2022-08-16T01:21:47.489Z,19.75
2022-08-16T01:23:10.310Z,19.73
2022-08-16T01:24:52.574Z,19.71
2022-08-16T01:26:33.755Z,19.68
2022-08-16T01:27:34.491Z,19.66
2022-08-16T01:28:38.995Z,19.66
2022-08-16T01:29:57.892Z,19.63
2022-08-16T01:31:05.227Z,19.62
2022-08-16T01:32:09.899Z,19.60
2022-08-16T01:33:14.502Z,19.60
2022-08-16T01:34:24.924Z,19.58
2022-08-16T01:35:36.638Z,19.58
2022-08-16T01:36:41.934Z,19.57
2022-08-16T01:37:53.124Z,19.56
2022-08-16T01:38:58.401Z,19.53
2022-08-16T01:40:02.935Z,19.54
2022-08-16T01:41:19.342Z,19.53
2022-08-16T01:42:25.438Z,19.52
2022-08-16T01:43:28.412Z,19.51
2022-08-16T01:44:38.393Z,19.51
2022-08-16T01:45:41.521Z,19.50
2022-08-16T01:46:48.807Z,19.48
2022-08-16T01:47:53.087Z,19.48
2022-08-16T01:49:00.216Z,19.46
2022-08-16T01:50:42.142Z,19.45
2022-08-16T01:51:29.565Z,19.43
2022-08-16T01:52:33.795Z,19.43
2022-08-16T01:53:44.377Z,19.43
2022-08-16T01:54:54.067Z,19.41
2022-08-16T01:55:56.947Z,19.39
2022-08-16T01:57:00.408Z,19.38
2022-08-16T01:58:03.680Z,19.39
2022-08-16T01:59:15.655Z,19.38
2022-08-16T02:00:19.749Z,19.37
2022-08-16T02:01:23.209Z,19.37
2022-08-16T02:02:29.032Z,19.36
2022-08-16T02:03:31.354Z,19.35
2022-08-16T02:04:48.746Z,19.34
2022-08-16T02:05:58.154Z,19.34
2022-08-16T02:07:08.549Z,19.32
2022-08-16T02:08:32.927Z,19.32
2022-08-16T02:09:38.272Z,19.32
2022-08-16T02:10:41.908Z,19.31
2022-08-16T02:11:48.668Z,19.30
2022-08-16T02:12:59.814Z,19.28
2022-08-16T02:14:03.990Z,19.28
2022-08-16T02:15:08.807Z,19.28
2022-08-16T02:16:18.306Z,19.26
2022-08-16T02:17:22.387Z,19.26
2022-08-16T02:18:25.425Z,19.26
2022-08-16T02:19:59.407Z,19.25
2022-08-16T02:20:54.039Z,19.24
2022-08-16T02:22:08.825Z,19.25
2022-08-16T02:23:22.351Z,19.23
2022-08-16T02:24:32.722Z,19.24
2022-08-16T02:25:52.769Z,19.22
2022-08-16T02:26:56.936Z,19.22
2022-08-16T02:28:01.806Z,19.20
2022-08-16T02:29:04.024Z,19.20
2022-08-16T02:30:09.603Z,19.19
2022-08-16T02:32:03.213Z,19.19
2022-08-16T02:32:55.976Z,19.18
2022-08-16T02:33:59.526Z,19.18
2022-08-16T02:35:14.123Z,19.18
2022-08-16T02:36:48.237Z,19.17
2022-08-16T02:37:52.485Z,19.15
2022-08-16T02:38:56.280Z,19.15
2022-08-16T02:40:00.006Z,19.15
2022-08-16T02:41:09.561Z,19.14
2022-08-16T02:42:13.669Z,19.13
2022-08-16T02:43:26.615Z,19.13
2022-08-16T02:44:31.622Z,19.11
2022-08-16T02:45:37.579Z,19.10
2022-08-16T02:46:40.059Z,19.08
2022-08-16T02:48:01.744Z,19.08
2022-08-16T02:49:16.793Z,19.07
2022-08-16T02:51:03.321Z,19.07
2022-08-16T02:51:42.883Z,19.05
2022-08-16T02:52:45.118Z,19.05
2022-08-16T02:53:52.383Z,19.03
2022-08-16T02:54:55.844Z,19.02
2022-08-16T02:56:00.519Z,19.01
2022-08-16T02:57:04.541Z,19.00
2022-08-16T02:58:06.746Z,19.00
2022-08-16T02:59:11.430Z,18.98
2022-08-16T03:00:34.410Z,18.97
2022-08-16T03:01:39.261Z,18.97
2022-08-16T03:02:48.125Z,18.95
2022-08-16T03:04:40.782Z,18.94
2022-08-16T03:05:24.878Z,18.93
2022-08-16T03:06:41.686Z,18.92
2022-08-16T03:07:54.902Z,18.91
2022-08-16T03:08:57.939Z,18.90
2022-08-16T03:10:02.889Z,18.90
2022-08-16T03:11:18.066Z,18.89
2022-08-16T03:12:30.216Z,18.88
2022-08-16T03:13:40.644Z,18.87
2022-08-16T03:14:45.537Z,18.86
2022-08-16T03:15:49.705Z,18.86
2022-08-16T03:16:59.831Z,18.86
2022-08-16T03:18:12.608Z,18.85
2022-08-16T03:19:22.297Z,18.85
2022-08-16T03:20:32.388Z,18.82
2022-08-16T03:21:38.803Z,18.82
2022-08-16T03:22:45.351Z,18.81
2022-08-16T03:23:49.879Z,18.81
2022-08-16T03:24:53.961Z,18.80
2022-08-16T03:26:00.856Z,18.78
2022-08-16T03:27:04.611Z,18.78
2022-08-16T03:28:10.232Z,18.76
2022-08-16T03:29:13.834Z,18.76
2022-08-16T03:30:21.101Z,18.75
2022-08-16T03:31:34.820Z,18.74
2022-08-16T03:32:43.876Z,18.73
2022-08-16T03:33:46.984Z,18.71
2022-08-16T03:34:55.017Z,18.71
2022-08-16T03:36:30.938Z,18.69
2022-08-16T03:37:25.442Z,18.69
2022-08-16T03:38:33.498Z,18.70
2022-08-16T03:39:47.160Z,18.69
2022-08-16T03:40:49.404Z,18.68
2022-08-16T03:41:59.574Z,18.66
2022-08-16T03:43:20.667Z,18.68
2022-08-16T03:44:40.815Z,18.65
2022-08-16T03:45:47.151Z,18.65
2022-08-16T03:46:50.340Z,18.64
2022-08-16T03:48:09.412Z,18.63
2022-08-16T03:49:17.426Z,18.62
2022-08-16T03:50:26.026Z,18.62
2022-08-16T03:51:30.250Z,18.61
2022-08-16T03:52:38.125Z,18.60
2022-08-16T03:53:46.118Z,18.60
2022-08-16T03:55:04.716Z,18.57
2022-08-16T03:56:20.033Z,18.58
2022-08-16T03:57:31.990Z,18.58
2022-08-16T03:58:40.029Z,18.58
2022-08-16T03:59:47.234Z,18.58
2022-08-16T04:00:56.830Z,18.58
2022-08-16T04:02:02.807Z,18.57
2022-08-16T04:03:08.518Z,18.56
2022-08-16T04:04:13.498Z,18.56
2022-08-16T04:05:39.712Z,18.56
2022-08-16T04:06:42.005Z,18.56
2022-08-16T04:07:47.174Z,18.56
2022-08-16T04:08:53.447Z,18.57
2022-08-16T04:09:55.675Z,18.55
2022-08-16T04:10:59.643Z,18.57
2022-08-16T04:12:11.067Z,18.57
2022-08-16T04:14:01.250Z,18.57
2022-08-16T04:14:51.891Z,18.59
2022-08-16T04:15:54.164Z,18.58
2022-08-16T04:16:59.489Z,18.58
2022-08-16T04:18:12.441Z,18.59
2022-08-16T04:19:16.793Z,18.59
2022-08-16T04:20:31.471Z,18.58
2022-08-16T04:21:47.342Z,18.59
2022-08-16T04:22:56.988Z,18.59
2022-08-16T04:24:08.049Z,18.59
2022-08-16T04:25:13.037Z,18.60
2022-08-16T04:26:16.765Z,18.60
2022-08-16T04:27:20.383Z,18.60
2022-08-16T04:28:52.372Z,18.60
2022-08-16T04:29:46.954Z,18.62
2022-08-16T04:30:54.623Z,18.62
2022-08-16T04:31:58.383Z,18.62
2022-08-16T04:33:07.431Z,18.63
2022-08-16T04:34:12.486Z,18.64
2022-08-16T04:35:20.361Z,18.64
2022-08-16T04:36:27.546Z,18.64
2022-08-16T04:37:30.414Z,18.65
2022-08-16T04:38:42.168Z,18.65
2022-08-16T04:39:47.421Z,18.66
2022-08-16T04:40:59.866Z,18.66
2022-08-16T04:42:11.148Z,18.68
2022-08-16T04:43:17.755Z,18.68
2022-08-16T04:44:30.977Z,18.69
2022-08-16T04:45:37.007Z,18.71
2022-08-16T04:47:02.923Z,18.73
2022-08-16T04:48:22.080Z,18.75
2022-08-16T04:49:43.603Z,18.78
2022-08-16T04:50:49.399Z,18.82
2022-08-16T04:51:55.451Z,18.84
2022-08-16T04:52:59.266Z,18.87
2022-08-16T04:54:04.484Z,18.91
2022-08-16T04:55:16.120Z,18.96
2022-08-16T04:56:20.789Z,19.01
2022-08-16T04:57:26.384Z,19.05
2022-08-16T04:58:45.997Z,19.11
2022-08-16T04:59:51.044Z,19.16
2022-08-16T05:00:56.811Z,19.20
2022-08-16T05:01:59.651Z,19.27
2022-08-16T05:03:09.773Z,19.34
2022-08-16T05:04:25.914Z,19.41
2022-08-16T05:05:40.249Z,19.49
2022-08-16T05:06:51.319Z,19.57
2022-08-16T05:08:00.901Z,19.65
2022-08-16T05:09:30.318Z,19.75
2022-08-16T05:10:39.391Z,19.82
2022-08-16T05:11:41.825Z,19.90
2022-08-16T05:12:44.786Z,19.99
2022-08-16T05:13:48.366Z,20.07
2022-08-16T05:15:02.375Z,20.16
2022-08-16T05:16:06.027Z,20.26
2022-08-16T05:17:09.768Z,20.34
2022-08-16T05:18:16.589Z,20.44
2022-08-16T05:19:27.537Z,20.55
2022-08-16T05:21:09.761Z,20.65
2022-08-16T05:22:18.067Z,20.78
2022-08-16T05:23:23.921Z,20.89
2022-08-16T05:24:27.206Z,21.00
2022-08-16T05:25:40.972Z,21.08
2022-08-16T05:26:51.359Z,21.22
2022-08-16T05:27:56.608Z,21.31
2022-08-16T05:29:03.715Z,21.41
2022-08-16T05:30:36.770Z,21.51
2022-08-16T05:31:31.345Z,21.62
2022-08-16T05:32:45.604Z,21.72
2022-08-16T05:33:53.566Z,21.83
2022-08-16T05:34:59.531Z,21.93
2022-08-16T05:36:03.766Z,22.01
2022-08-16T05:37:08.404Z,22.10
2022-08-16T05:38:30.846Z,22.20
2022-08-16T05:39:40.665Z,22.33
2022-08-16T05:40:43.673Z,22.43
2022-08-16T05:42:02.605Z,22.55
2022-08-16T05:43:05.645Z,22.65
2022-08-16T05:44:23.033Z,22.76
2022-08-16T05:45:27.411Z,22.87
2022-08-16T05:46:35.430Z,22.97
2022-08-16T05:48:00.216Z,23.10
2022-08-16T05:49:22.191Z,23.24
2022-08-16T05:50:34.384Z,23.35
2022-08-16T05:51:40.168Z,23.48
2022-08-16T05:52:44.817Z,23.60
2022-08-16T05:53:48.224Z,23.72
2022-08-16T05:54:58.422Z,23.85
2022-08-16T05:56:04.424Z,23.98
2022-08-16T05:57:13.251Z,24.10
2022-08-16T05:58:31.444Z,24.25
2022-08-16T05:59:35.261Z,24.39
2022-08-16T06:00:40.032Z,24.51
2022-08-16T06:01:46.866Z,24.64
2022-08-16T06:02:50.194Z,24.78
2022-08-16T06:04:34.471Z,24.94
2022-08-16T06:05:41.424Z,25.10
2022-08-16T06:06:56.376Z,25.24
2022-08-16T06:07:59.757Z,25.39
2022-08-16T06:09:08.869Z,25.52
2022-08-16T06:10:12.966Z,25.66
2022-08-16T06:11:15.263Z,25.78
2022-08-16T06:12:27.399Z,25.93
2022-08-16T06:13:32.532Z,26.08
2022-08-16T06:14:35.797Z,26.22
2022-08-16T06:15:41.536Z,26.36
2022-08-16T06:16:44.922Z,26.50
2022-08-16T06:17:53.307Z,26.65
2022-08-16T06:19:04.849Z,26.81
2022-08-16T06:20:25.642Z,26.94
2022-08-16T06:21:38.550Z,27.09
2022-08-16T06:22:44.525Z,27.22
2022-08-16T06:23:47.092Z,27.34
2022-08-16T06:24:56.174Z,27.48
2022-08-16T06:25:59.098Z,27.60
2022-08-16T06:27:05.669Z,27.73
2022-08-16T06:28:17.075Z,27.87
2022-08-16T06:29:36.621Z,28.03
2022-08-16T06:30:43.736Z,28.17
2022-08-16T06:31:49.266Z,28.32
2022-08-16T06:32:55.752Z,28.43
2022-08-16T06:33:58.595Z,28.56
2022-08-16T06:35:05.346Z,28.70
2022-08-16T06:36:13.890Z,28.83
2022-08-16T06:37:21.927Z,28.97
2022-08-16T06:38:33.846Z,29.09
2022-08-16T06:39:49.180Z,29.25
2022-08-16T06:40:59.476Z,29.41
2022-08-16T06:42:02.439Z,29.52
2022-08-16T06:43:27.558Z,29.66
2022-08-16T06:44:38.191Z,29.79
2022-08-16T06:45:48.507Z,29.92
2022-08-16T06:46:55.729Z,30.04
2022-08-16T06:47:58.377Z,30.16
2022-08-16T06:49:05.621Z,30.28
2022-08-16T06:50:22.261Z,30.39
2022-08-16T06:51:45.884Z,30.54
2022-08-16T06:52:57.685Z,30.68
2022-08-16T06:54:01.861Z,30.79
2022-08-16T06:55:06.085Z,30.90
2022-08-16T06:56:22.922Z,31.02
2022-08-16T06:57:57.928Z,31.17
2022-08-16T06:59:00.797Z,31.26
2022-08-16T07:00:24.332Z,31.38
2022-08-16T07:01:44.844Z,31.52
2022-08-16T07:02:54.106Z,31.64
2022-08-16T07:03:57.543Z,31.73
2022-08-16T07:05:15.099Z,31.85
2022-08-16T07:06:31.484Z,31.97
2022-08-16T07:07:38.199Z,32.08
2022-08-16T07:08:42.677Z,32.19
2022-08-16T07:09:45.254Z,32.29
2022-08-16T07:10:50.550Z,32.37
2022-08-16T07:11:54.036Z,32.48
2022-08-16T07:13:12.021Z,32.57
2022-08-16T07:14:25.882Z,32.68
2022-08-16T07:15:31.811Z,32.79
2022-08-16T07:16:34.835Z,32.86
2022-08-16T07:17:37.750Z,32.95
2022-08-16T07:19:01.612Z,33.04
2022-08-16T07:20:35.685Z,33.16
2022-08-16T07:21:46.222Z,33.27
2022-08-16T07:22:58.634Z,33.38
2022-08-16T07:24:30.407Z,33.48
2022-08-16T07:25:40.253Z,33.58
2022-08-16T07:26:48.550Z,33.66
2022-08-16T07:27:51.873Z,33.73
2022-08-16T07:28:59.829Z,33.82
2022-08-16T07:30:02.529Z,33.90
2022-08-16T07:31:13.273Z,33.96
2022-08-16T07:32:20.964Z,34.02
2022-08-16T07:33:51.291Z,34.10
2022-08-16T07:34:55.609Z,34.16
2022-08-16T07:35:59.684Z,34.22
2022-08-16T07:37:09.569Z,34.29
2022-08-16T07:38:39.495Z,34.36
2022-08-16T07:39:44.178Z,34.42
2022-08-16T07:41:00.245Z,34.48
2022-08-16T07:42:06.895Z,34.53
2022-08-16T07:43:09.709Z,34.60
2022-08-16T07:44:15.379Z,34.66
2022-08-16T07:45:22.816Z,34.71
2022-08-16T07:46:38.527Z,34.76
2022-08-16T07:47:51.187Z,34.84
2022-08-16T07:48:55.338Z,34.88
2022-08-16T07:50:07.731Z,34.93
2022-08-16T07:51:10.698Z,34.99
2022-08-16T07:52:18.982Z,35.04
2022-08-16T07:53:22.958Z,35.08
2022-08-16T07:54:32.130Z,35.13
2022-08-16T07:55:47.631Z,35.18
2022-08-16T07:56:58.829Z,35.25
2022-08-16T07:58:03.194Z,35.31
2022-08-16T07:59:08.823Z,35.34
2022-08-16T08:00:18.632Z,35.40
2022-08-16T08:01:24.957Z,35.45
2022-08-16T08:02:33.263Z,35.50
2022-08-16T08:03:39.915Z,35.55
2022-08-16T08:04:45.707Z,35.57
2022-08-16T08:05:48.707Z,35.61
2022-08-16T08:06:52.248Z,35.64
2022-08-16T08:07:57.664Z,35.69
2022-08-16T08:09:00.663Z,35.75
2022-08-16T08:10:05.566Z,35.79
2022-08-16T08:11:14.472Z,35.81
2022-08-16T08:12:32.416Z,35.87
2022-08-16T08:13:42.630Z,35.92
2022-08-16T08:14:49.205Z,35.96
2022-08-16T08:15:53.501Z,35.99
2022-08-16T08:16:56.288Z,36.04
2022-08-16T08:18:29.758Z,36.09
2022-08-16T08:19:27.670Z,36.14
2022-08-16T08:20:33.828Z,36.20
2022-08-16T08:21:58.545Z,36.23
2022-08-16T08:23:25.700Z,36.27
2022-08-16T08:24:32.033Z,36.30
2022-08-16T08:25:54.981Z,36.35
2022-08-16T08:27:04.058Z,36.40
2022-08-16T08:28:10.769Z,36.44
2022-08-16T08:29:14.136Z,36.47
2022-08-16T08:30:49.660Z,36.51
2022-08-16T08:31:42.710Z,36.52
2022-08-16T08:32:58.072Z,36.49
2022-08-16T08:34:05.291Z,36.50
2022-08-16T08:35:10.410Z,36.49
2022-08-16T08:36:22.216Z,36.51
2022-08-16T08:37:27.749Z,36.52
2022-08-16T08:38:53.521Z,36.53
2022-08-16T08:39:57.171Z,36.55
2022-08-16T08:40:59.634Z,36.56
2022-08-16T08:42:03.685Z,36.57
2022-08-16T08:43:12.107Z,36.61
2022-08-16T08:44:29.341Z,36.63
2022-08-16T08:45:47.319Z,36.68
2022-08-16T08:47:00.046Z,36.71
2022-08-16T08:48:05.980Z,36.73
2022-08-16T08:49:09.498Z,36.77
2022-08-16T08:50:31.947Z,36.79
2022-08-16T08:51:36.728Z,36.82
2022-08-16T08:52:44.490Z,36.82
2022-08-16T08:53:57.823Z,36.85
2022-08-16T08:55:10.892Z,36.90
2022-08-16T08:56:23.770Z,36.93
2022-08-16T08:57:30.042Z,36.95
2022-08-16T08:58:53.604Z,36.97
2022-08-16T09:00:12.913Z,36.99
2022-08-16T09:01:31.664Z,37.01
2022-08-16T09:02:38.856Z,37.01
2022-08-16T09:03:41.219Z,37.03
2022-08-16T09:04:47.725Z,37.04
2022-08-16T09:05:52.485Z,37.05
2022-08-16T09:06:58.591Z,37.09
2022-08-16T09:08:06.257Z,37.10
2022-08-16T09:09:33.636Z,37.11
2022-08-16T09:10:39.491Z,37.14
2022-08-16T09:11:47.307Z,37.18
2022-08-16T09:12:52.344Z,37.20
2022-08-16T09:13:58.111Z,37.22
2022-08-16T09:15:01.061Z,37.25
2022-08-16T09:16:10.541Z,37.27
2022-08-16T09:17:38.304Z,37.30
2022-08-16T09:18:38.043Z,37.31
2022-08-16T09:19:44.828Z,37.35
2022-08-16T09:20:59.374Z,37.37
2022-08-16T09:22:03.411Z,37.41
2022-08-16T09:23:06.962Z,37.41
2022-08-16T09:24:39.126Z,37.43
2022-08-16T09:25:37.476Z,37.43
2022-08-16T09:26:45.507Z,37.45
2022-08-16T09:27:56.691Z,37.46
2022-08-16T09:29:15.697Z,37.47
2022-08-16T09:30:33.642Z,37.48
2022-08-16T09:31:41.109Z,37.47
2022-08-16T09:32:47.005Z,37.49
2022-08-16T09:33:52.155Z,37.49
2022-08-16T09:34:54.550Z,37.52
2022-08-16T09:36:01.297Z,37.52
2022-08-16T09:37:17.962Z,37.52
2022-08-16T09:38:32.085Z,37.51
2022-08-16T09:39:41.300Z,37.53
2022-08-16T09:40:47.315Z,37.52
2022-08-16T09:41:53.941Z,37.51
2022-08-16T09:42:58.937Z,37.50
2022-08-16T09:45:11.421Z,37.48
2022-08-16T09:45:29.075Z,37.46
2022-08-16T09:46:49.075Z,37.45
2022-08-16T09:47:55.658Z,37.45
2022-08-16T09:49:03.457Z,37.44
2022-08-16T09:50:14.180Z,37.41
2022-08-16T09:51:30.821Z,37.38
2022-08-16T09:52:44.406Z,37.38
2022-08-16T09:53:53.880Z,37.39
2022-08-16T09:54:57.339Z,37.38
2022-08-16T09:55:59.514Z,37.36
2022-08-16T09:57:02.881Z,37.35
2022-08-16T09:58:05.421Z,37.35
2022-08-16T09:59:11.373Z,37.35
2022-08-16T10:00:42.336Z,37.34
2022-08-16T10:01:43.524Z,37.30
2022-08-16T10:02:49.475Z,37.22
2022-08-16T10:04:02.666Z,37.18
2022-08-16T10:05:06.675Z,37.11
2022-08-16T10:06:11.208Z,37.03
2022-08-16T10:07:16.051Z,36.97
2022-08-16T10:08:25.978Z,36.90
2022-08-16T10:09:44.947Z,36.81
2022-08-16T10:11:10.431Z,36.68
2022-08-16T10:12:31.534Z,36.61
2022-08-16T10:13:39.607Z,36.48
2022-08-16T10:14:45.948Z,36.41
2022-08-16T10:15:54.817Z,36.36
2022-08-16T10:17:03.375Z,36.30
2022-08-16T10:19:00.962Z,36.26
2022-08-16T10:19:32.458Z,36.20
2022-08-16T10:20:37.904Z,36.17
2022-08-16T10:21:40.641Z,36.15
2022-08-16T10:22:43.522Z,36.10
2022-08-16T10:23:48.678Z,36.06
2022-08-16T10:24:56.218Z,35.98
2022-08-16T10:27:19.426Z,35.95
2022-08-16T10:27:27.286Z,35.89
2022-08-16T10:28:39.635Z,35.85
2022-08-16T10:30:00.028Z,35.80
2022-08-16T10:31:05.784Z,35.72
2022-08-16T10:32:08.775Z,35.64
2022-08-16T10:33:13.767Z,35.61
2022-08-16T10:34:31.475Z,35.52
2022-08-16T10:35:34.855Z,35.45
2022-08-16T10:36:54.264Z,35.39
2022-08-16T10:37:57.393Z,35.35
2022-08-16T10:38:59.941Z,35.31
2022-08-16T10:40:02.307Z,35.27
2022-08-16T10:41:10.356Z,35.24
2022-08-16T10:42:13.180Z,35.21
2022-08-16T10:43:18.551Z,35.18
2022-08-16T10:44:21.237Z,35.15
2022-08-16T10:45:23.649Z,35.13
2022-08-16T10:46:39.358Z,35.12
2022-08-16T10:47:45.638Z,35.08
2022-08-16T10:48:48.068Z,35.07
2022-08-16T10:49:50.482Z,35.03
2022-08-16T10:50:53.926Z,35.04
2022-08-16T10:52:01.716Z,35.02
2022-08-16T10:53:07.505Z,35.02
2022-08-16T10:54:29.085Z,35.04
2022-08-16T10:55:44.197Z,35.00
2022-08-16T10:56:55.426Z,35.00
2022-08-16T10:58:11.372Z,35.00
2022-08-16T10:59:32.607Z,35.00
2022-08-16T11:00:40.681Z,34.99
2022-08-16T11:01:44.345Z,35.00
2022-08-16T11:02:58.930Z,34.99
2022-08-16T11:05:04.717Z,34.99
2022-08-16T11:05:26.569Z,35.00
2022-08-16T11:06:30.138Z,35.00
2022-08-16T11:07:52.370Z,34.99
2022-08-16T11:13:57.843Z,34.96
2022-08-16T11:17:32.728Z,34.79
2022-08-16T11:19:03.839Z,34.75
2022-08-16T11:20:36.645Z,34.67
2022-08-16T11:21:29.085Z,34.60
2022-08-16T11:22:46.994Z,34.54
2022-08-16T11:23:57.489Z,34.49
2022-08-16T11:26:06.581Z,34.44
2022-08-16T11:26:24.148Z,34.38
2022-08-16T11:27:35.540Z,34.35
2022-08-16T11:30:00.966Z,34.28
2022-08-16T11:31:03.607Z,34.25
2022-08-16T11:32:07.605Z,34.24
2022-08-16T11:33:12.464Z,34.21
2022-08-16T11:34:14.892Z,34.17
2022-08-16T11:36:53.894Z,34.13
2022-08-16T11:38:47.038Z,34.10
2022-08-16T11:39:31.807Z,34.08
2022-08-16T11:40:44.364Z,34.07
2022-08-16T11:41:49.313Z,34.04
2022-08-16T11:42:55.476Z,34.02
2022-08-16T11:43:58.764Z,34.00
2022-08-16T11:45:01.309Z,33.99
2022-08-16T11:46:43.804Z,33.97
2022-08-16T11:47:30.436Z,33.96
2022-08-16T11:48:35.254Z,33.96
2022-08-16T11:49:37.530Z,33.94
2022-08-16T11:50:42.222Z,33.93
2022-08-16T11:51:46.862Z,33.92
2022-08-16T11:52:49.079Z,33.89
2022-08-16T11:53:51.820Z,33.86
2022-08-16T11:54:57.076Z,33.84
2022-08-16T11:56:02.440Z,33.83
2022-08-16T11:57:09.182Z,33.81
2022-08-16T11:58:12.410Z,33.78
2022-08-16T11:59:16.662Z,33.76
2022-08-16T12:00:34.160Z,33.74
2022-08-16T12:01:44.380Z,33.72
2022-08-16T12:02:58.364Z,33.70
2022-08-16T12:04:00.573Z,33.69
2022-08-16T12:05:03.277Z,33.68
2022-08-16T12:06:25.347Z,33.67
2022-08-16T12:07:33.324Z,33.65
2022-08-16T12:08:35.906Z,33.63
2022-08-16T12:09:43.239Z,33.62
2022-08-16T12:10:46.716Z,33.59
2022-08-16T12:11:53.025Z,33.56
2022-08-16T12:12:57.951Z,33.54
2022-08-16T12:14:04.457Z,33.51
2022-08-16T12:15:08.134Z,33.49
2022-08-16T12:16:10.990Z,33.45
2022-08-16T12:17:16.240Z,33.44
2022-08-16T12:18:20.781Z,33.42
2022-08-16T12:19:35.081Z,33.39
2022-08-16T12:20:41.062Z,33.38
2022-08-16T12:21:59.229Z,33.36
2022-08-16T12:23:03.362Z,33.35
2022-08-16T12:24:06.778Z,33.35
2022-08-16T12:25:12.607Z,33.34
2022-08-16T12:26:17.445Z,33.32
2022-08-16T12:27:24.854Z,33.31
2022-08-16T12:28:37.066Z,33.29
2022-08-16T12:29:50.263Z,33.29
2022-08-16T12:30:53.377Z,33.27
2022-08-16T12:32:01.535Z,33.25
2022-08-16T12:33:25.484Z,33.22
2022-08-16T12:34:29.654Z,33.20
2022-08-16T12:35:34.044Z,33.20
2022-08-16T12:36:36.863Z,33.17
2022-08-16T12:37:41.434Z,33.14
2022-08-16T12:38:48.237Z,33.12
2022-08-16T12:39:55.720Z,33.09
2022-08-16T12:40:58.368Z,33.05
2022-08-16T12:42:01.518Z,33.00
2022-08-16T12:43:06.781Z,32.97
2022-08-16T12:44:11.280Z,32.93
2022-08-16T12:45:23.963Z,32.86
2022-08-16T12:46:26.217Z,32.84
2022-08-16T12:47:47.560Z,32.80
2022-08-16T12:49:00.022Z,32.77
2022-08-16T12:50:02.806Z,32.73
2022-08-16T12:51:13.431Z,32.71
2022-08-16T12:52:33.479Z,32.67
2022-08-16T12:53:40.035Z,32.62
2022-08-16T12:54:42.473Z,32.57
2022-08-16T12:55:45.017Z,32.53
2022-08-16T12:56:48.327Z,32.50
2022-08-16T12:57:58.406Z,32.45
2022-08-16T12:59:06.681Z,32.40
2022-08-16T13:00:26.713Z,32.36
2022-08-16T13:01:34.468Z,32.34
2022-08-16T13:02:36.909Z,32.31
2022-08-16T13:03:41.530Z,32.28
2022-08-16T13:04:43.738Z,32.25
2022-08-16T13:05:53.603Z,32.22
2022-08-16T13:06:59.279Z,32.19
2022-08-16T13:08:01.577Z,32.18
2022-08-16T13:09:20.873Z,32.16
2022-08-16T13:10:38.083Z,32.15
2022-08-16T13:11:49.139Z,32.14
2022-08-16T13:13:00.359Z,32.13
2022-08-16T13:14:02.651Z,32.13
2022-08-16T13:15:10.875Z,32.12
2022-08-16T13:16:20.322Z,32.13
2022-08-16T13:17:29.667Z,32.13
2022-08-16T13:18:35.447Z,32.13
2022-08-16T13:20:06.073Z,32.13
2022-08-16T13:21:07.305Z,32.13
2022-08-16T13:22:09.723Z,32.13
2022-08-16T13:23:21.553Z,32.12
2022-08-16T13:24:25.034Z,32.12
2022-08-16T13:25:28.919Z,32.13
2022-08-16T13:26:31.135Z,32.11
2022-08-16T13:28:02.147Z,32.10
2022-08-16T13:28:55.635Z,32.10
2022-08-16T13:29:58.052Z,32.10
2022-08-16T13:31:01.299Z,32.09
2022-08-16T13:32:07.083Z,32.09
2022-08-16T13:33:15.759Z,32.07
2022-08-16T13:34:20.370Z,32.08
2022-08-16T13:35:24.414Z,32.07
2022-08-16T13:37:50.522Z,32.03
2022-08-16T13:38:54.333Z,32.01
2022-08-16T13:39:56.767Z,31.99
2022-08-16T13:40:59.171Z,31.98
2022-08-16T13:42:03.206Z,31.97
2022-08-16T13:43:05.381Z,31.96
2022-08-16T13:44:09.207Z,31.94
2022-08-16T13:45:15.773Z,31.94
2022-08-16T13:46:18.757Z,31.91
2022-08-16T13:47:20.973Z,31.90
2022-08-16T13:48:26.114Z,31.89
2022-08-16T13:49:29.724Z,31.87
2022-08-16T13:50:51.384Z,31.85
2022-08-16T13:51:54.879Z,31.84
2022-08-16T13:52:57.851Z,31.82
2022-08-16T13:54:04.374Z,31.82
2022-08-16T13:55:17.978Z,31.81
2022-08-16T13:56:22.216Z,31.79
2022-08-16T13:57:53.473Z,31.77
2022-08-16T13:58:55.168Z,31.74
2022-08-16T13:59:57.940Z,31.72
2022-08-16T14:01:01.795Z,31.72
2022-08-16T14:02:08.047Z,31.70
2022-08-16T14:03:10.306Z,31.69
2022-08-16T14:04:19.018Z,31.66
2022-08-16T14:05:29.422Z,31.65
2022-08-16T14:06:32.167Z,31.64
2022-08-16T14:07:40.550Z,31.62
2022-08-16T14:08:44.504Z,31.61
2022-08-16T14:10:01.242Z,31.59
2022-08-16T14:11:06.006Z,31.57
2022-08-16T14:12:21.517Z,31.57
2022-08-16T14:13:24.233Z,31.57
2022-08-16T14:14:29.499Z,31.56
2022-08-16T14:15:32.382Z,31.54
2022-08-16T14:16:37.063Z,31.52
2022-08-16T14:18:15.758Z,31.52
2022-08-16T14:19:02.277Z,31.51
2022-08-16T14:20:06.491Z,31.50
2022-08-16T14:21:16.747Z,31.46
2022-08-16T14:22:31.218Z,31.46
2022-08-16T14:23:39.038Z,31.44
2022-08-16T14:24:41.320Z,31.43
2022-08-16T14:25:54.089Z,31.41
2022-08-16T14:26:56.780Z,31.39
2022-08-16T14:27:59.156Z,31.37
2022-08-16T14:29:03.496Z,31.35
2022-08-16T14:30:15.286Z,31.34
2022-08-16T14:31:18.952Z,31.32
2022-08-16T14:32:32.685Z,31.29
2022-08-16T14:33:36.658Z,31.28
2022-08-16T14:34:38.854Z,31.25
2022-08-16T14:35:49.252Z,31.23
2022-08-16T14:36:53.345Z,31.21
2022-08-16T14:37:56.857Z,31.19
2022-08-16T14:39:00.927Z,31.18
2022-08-16T14:40:08.580Z,31.16
2022-08-16T14:41:10.879Z,31.14
2022-08-16T14:42:18.462Z,31.12
2022-08-16T14:43:20.940Z,31.10
2022-08-16T14:44:26.216Z,31.07
2022-08-16T14:45:29.928Z,31.06
2022-08-16T14:46:33.420Z,31.05
2022-08-16T14:47:38.594Z,31.05
2022-08-16T14:48:40.973Z,31.01
2022-08-16T14:49:43.841Z,31.00
2022-08-16T14:50:46.073Z,31.00
2022-08-16T14:51:48.929Z,31.00
2022-08-16T14:53:00.817Z,30.98
2022-08-16T14:54:04.954Z,30.96
2022-08-16T14:55:15.188Z,30.96
2022-08-16T14:56:38.839Z,30.95
2022-08-16T14:57:40.522Z,30.95
2022-08-16T14:58:42.742Z,30.93
2022-08-16T14:59:51.702Z,30.92
2022-08-16T15:00:57.809Z,30.93
2022-08-16T15:02:02.319Z,30.92
2022-08-16T15:03:10.752Z,30.91